Time;durP1;ratioP1;P1;durP2;ratioP2;P2;SDS_P1;SDS_P2;PMS_P1;PMS_P2;Temp;Humidity;BMP_temperature;BMP_pressure;BME280_temperature;BME280_humidity;BME280_pressure;Samples;Min_cycle;Max_cycle;Signal;HPM_P1;HPM_P2
2024/03/16 00:00:47;;;;;;;2.50;2.13;;;;;;;7.33;100.00;98969.03;5108821;28;20028;-65
2024/03/16 00:03:13;;;;;;;21.80;4.38;;;;;;;7.32;100.00;98954.41;5127042;28;20027;-65
2024/03/16 00:05:38;;;;;;;2.15;1.98;;;;;;;7.37;100.00;98967.25;5127580;28;20031;-64
2024/03/16 00:08:04;;;;;;;9.35;2.95;;;;;;;7.35;100.00;98954.34;5127239;28;20020;-65
2024/03/16 00:10:31;;;;;;;4.13;2.55;;;;;;;7.41;100.00;98943.91;5126989;28;20065;-65
2024/03/16 00:12:56;;;;;;;7.95;2.92;;;;;;;7.40;100.00;98962.00;5127361;28;20028;-64
2024/03/16 00:15:21;;;;;;;5.53;3.42;;;;;;;7.32;100.00;98950.13;5127175;28;20035;-65
2024/03/16 00:17:47;;;;;;;1.15;1.10;;;;;;;7.38;100.00;98958.63;5127109;28;20035;-64
2024/03/16 00:20:13;;;;;;;10.30;2.42;;;;;;;7.41;100.00;98954.25;5127080;28;20052;-65
2024/03/16 00:22:39;;;;;;;3.25;1.70;;;;;;;7.43;100.00;98957.66;5126846;28;20051;-64
2024/03/16 00:25:06;;;;;;;8.55;3.55;;;;;;;7.38;100.00;98959.47;5108482;28;20028;-66
2024/03/16 00:27:33;;;;;;;4.47;2.47;;;;;;;7.37;100.00;98968.09;5126715;28;20024;-64
2024/03/16 00:29:58;;;;;;;15.00;6.10;;;;;;;7.35;100.00;98961.28;5126740;28;20095;-63
2024/03/16 00:32:24;;;;;;;10.07;3.45;;;;;;;7.28;100.00;98960.53;5126856;28;20356;-66
2024/03/16 00:34:49;;;;;;;7.20;3.25;;;;;;;7.30;100.00;98958.78;5126849;28;20106;-65
2024/03/16 00:37:15;;;;;;;10.05;3.17;;;;;;;7.26;100.00;98954.53;5126668;28;20034;-64
2024/03/16 00:39:40;;;;;;;5.05;3.35;;;;;;;7.27;100.00;98961.38;5126654;28;20058;-65
2024/03/16 00:42:09;;;;;;;2.05;1.85;;;;;;;7.22;100.00;98953.72;5126688;28;20055;-63
2024/03/16 00:44:37;;;;;;;1.55;1.45;;;;;;;7.21;100.00;98952.03;5126556;28;20028;-63
2024/03/16 00:47:03;;;;;;;1.40;1.30;;;;;;;7.26;100.00;98954.53;5126318;28;20042;-63
2024/03/16 00:49:29;;;;;;;2.00;1.85;;;;;;;7.31;100.00;98952.72;5126580;28;20463;-63
2024/03/16 00:51:54;;;;;;;4.75;2.38;;;;;;;7.32;100.00;98952.69;5108130;28;20112;-63
2024/03/16 00:54:20;;;;;;;4.10;3.30;;;;;;;7.34;100.00;98942.34;5126518;28;20019;-63
2024/03/16 00:56:46;;;;;;;2.65;1.17;;;;;;;7.38;100.00;98950.88;5126227;28;20023;-64
2024/03/16 00:59:12;;;;;;;2.38;2.25;;;;;;;7.37;100.00;98946.59;5108154;28;20027;-63
2024/03/16 01:01:38;;;;;;;1.35;1.30;;;;;;;7.36;100.00;98945.75;5126273;28;20046;-65
2024/03/16 01:04:04;;;;;;;5.30;4.03;;;;;;;7.30;100.00;98935.53;5124841;28;20467;-63
2024/03/16 01:06:30;;;;;;;1.90;1.17;;;;;;;7.33;100.00;98940.66;5126335;28;20026;-63
2024/03/16 01:08:55;;;;;;;7.10;3.13;;;;;;;7.29;100.00;98937.25;5126159;28;20059;-64
2024/03/16 01:11:24;;;;;;;2.53;1.77;;;;;;;7.30;100.00;98941.53;5126425;28;20023;-63
2024/03/16 01:13:50;;;;;;;3.65;2.20;;;;;;;7.32;100.00;98924.28;5125703;28;20055;-63
2024/03/16 01:16:16;;;;;;;4.47;3.10;;;;;;;7.34;100.00;98944.91;5125555;28;20019;-63
2024/03/16 01:18:41;;;;;;;4.20;2.63;;;;;;;7.35;100.00;98943.19;5126065;28;20161;-64
2024/03/16 01:21:07;;;;;;;7.63;3.72;;;;;;;7.31;100.00;98945.84;5125892;28;20103;-66
2024/03/16 01:23:33;;;;;;;5.80;3.35;;;;;;;7.32;100.00;98938.94;5107672;28;20023;-65
2024/03/16 01:25:59;;;;;;;4.43;3.70;;;;;;;7.34;100.00;98928.56;5126160;28;20046;-63
2024/03/16 01:28:25;;;;;;;3.60;2.67;;;;;;;7.34;100.00;98924.28;5125977;28;20024;-64
2024/03/16 01:30:50;;;;;;;2.90;2.63;;;;;;;7.39;100.00;98929.34;5107064;28;20015;-65
2024/03/16 01:33:15;;;;;;;6.82;2.60;;;;;;;7.40;100.00;98924.16;5126119;28;20020;-64
2024/03/16 01:35:41;;;;;;;3.08;2.78;;;;;;;7.42;100.00;98926.69;5125602;28;20019;-64
2024/03/16 01:38:06;;;;;;;10.85;3.50;;;;;;;7.41;100.00;98923.25;5125741;28;20031;-65
2024/03/16 01:40:32;;;;;;;1.38;1.23;;;;;;;7.40;100.00;98925.88;5125240;28;20044;-64
2024/03/16 01:42:57;;;;;;;12.73;5.32;;;;;;;7.39;100.00;98924.19;5106995;28;20020;-64
2024/03/16 01:45:23;;;;;;;6.47;4.88;;;;;;;7.32;100.00;98913.09;5125556;28;20027;-65
2024/03/16 01:47:48;;;;;;;8.57;2.30;;;;;;;7.32;100.00;98923.44;5123766;28;20041;-65
2024/03/16 01:50:20;;;;;;;0.50;0.50;;;;;;;7.30;100.00;98936.38;5125495;28;20015;-64
2024/03/16 01:52:46;;;;;;;3.45;2.42;;;;;;;7.29;100.00;98916.63;5125789;28;20026;-64
2024/03/16 01:55:12;;;;;;;0.88;0.77;;;;;;;7.26;100.00;98910.66;5125515;28;20020;-63
2024/03/16 01:57:37;;;;;;;7.70;3.90;;;;;;;7.25;100.00;98911.53;5123993;28;20127;-65
2024/03/16 02:00:05;;;;;;;1.98;1.83;;;;;;;7.28;100.00;98916.66;5125736;28;20053;-64
2024/03/16 02:02:36;;;;;;;2.17;1.73;;;;;;;7.24;100.00;98905.50;5107068;28;20024;-65
2024/03/16 02:05:06;;;;;;;2.00;1.73;;;;;;;7.28;100.00;98908.91;5106873;28;20024;-65
2024/03/16 02:07:33;;;;;;;5.72;4.95;;;;;;;7.27;100.00;98910.63;5125315;28;20035;-65
2024/03/16 02:10:05;;;;;;;1.95;1.85;;;;;;;7.20;100.00;98890.97;5125384;28;20016;-67
2024/03/16 02:12:31;;;;;;;3.13;2.25;;;;;;;7.29;100.00;98898.53;5107167;28;20103;-64
2024/03/16 02:14:56;;;;;;;24.92;2.35;;;;;;;7.29;100.00;98911.44;5125352;28;20075;-65
2024/03/16 02:17:22;;;;;;;5.85;5.28;;;;;;;7.30;100.00;98907.97;5125301;28;20501;-64
2024/03/16 02:19:48;;;;;;;2.60;2.47;;;;;;;7.32;100.00;98895.03;5125390;28;20024;-65
2024/03/16 02:22:14;;;;;;;2.13;1.92;;;;;;;7.35;100.00;98913.03;5125262;28;20024;-65
2024/03/16 02:24:39;;;;;;;8.00;5.18;;;;;;;7.35;100.00;98892.41;5125156;28;20033;-65
2024/03/16 02:27:06;;;;;;;1.67;1.52;;;;;;;7.41;100.00;98906.94;5128268;28;20058;-65
2024/03/16 02:29:35;;;;;;;5.10;4.22;;;;;;;7.41;100.00;98917.25;5129550;28;20023;-65
2024/03/16 02:32:06;;;;;;;2.25;2.08;;;;;;;7.40;100.00;98900.06;5129267;28;20030;-67
2024/03/16 02:34:33;;;;;;;2.05;1.85;;;;;;;7.32;100.00;98874.38;5129646;28;20023;-65
2024/03/16 02:36:58;;;;;;;9.60;3.63;;;;;;;7.31;100.00;98901.94;5128992;28;20027;-64
2024/03/16 02:39:25;;;;;;;2.20;2.03;;;;;;;7.28;100.00;98904.59;5128973;28;20055;-64
2024/03/16 02:41:52;;;;;;;6.40;4.30;;;;;;;7.27;100.00;98899.44;5129275;28;20050;-65
2024/03/16 02:44:17;;;;;;;12.60;3.58;;;;;;;7.27;100.00;98889.97;5110632;28;20274;-63
2024/03/16 02:46:42;;;;;;;3.65;3.17;;;;;;;7.31;100.00;98883.03;5128717;28;20027;-63
2024/03/16 02:49:08;;;;;;;8.80;3.97;;;;;;;7.28;100.00;98877.91;5129126;28;20065;-64
2024/03/16 02:51:33;;;;;;;8.77;3.13;;;;;;;7.23;100.00;98890.06;5110560;28;20023;-64
2024/03/16 02:53:59;;;;;;;5.18;3.70;;;;;;;7.25;100.00;98888.31;5129049;28;20028;-64
2024/03/16 02:56:24;;;;;;;2.40;1.90;;;;;;;7.26;100.00;98888.28;5128867;28;20015;-64
2024/03/16 02:58:50;;;;;;;6.68;2.50;;;;;;;7.27;100.00;98876.19;5128782;28;20030;-62
2024/03/16 03:01:16;;;;;;;2.47;2.15;;;;;;;7.26;100.00;98883.13;5128694;28;20023;-63
2024/03/16 03:03:42;;;;;;;5.40;3.67;;;;;;;7.26;100.00;98870.22;5127397;28;20121;-64
2024/03/16 03:06:08;;;;;;;4.68;2.30;;;;;;;7.25;100.00;98880.56;5128673;28;20360;-64
2024/03/16 03:08:33;;;;;;;4.47;3.53;;;;;;;7.25;100.00;98868.50;5110455;28;20023;-62
2024/03/16 03:10:59;;;;;;;3.83;2.88;;;;;;;7.29;100.00;98869.28;5128596;28;20024;-64
2024/03/16 03:13:24;;;;;;;3.65;2.90;;;;;;;7.27;100.00;98878.78;5128704;28;20098;-63
2024/03/16 03:15:50;;;;;;;5.47;4.25;;;;;;;7.28;100.00;98871.03;5128327;28;20470;-64
2024/03/16 03:18:15;;;;;;;7.05;5.22;;;;;;;7.33;100.00;98870.94;5128535;28;20043;-63
2024/03/16 03:20:41;;;;;;;14.30;4.28;;;;;;;7.30;100.00;98873.59;5128480;28;20024;-63
2024/03/16 03:23:08;;;;;;;1.42;1.33;;;;;;;7.31;100.00;98876.13;5128484;28;20035;-63
2024/03/16 03:25:34;;;;;;;3.80;2.00;;;;;;;7.29;100.00;98874.44;5128083;28;20019;-62
2024/03/16 03:27:59;;;;;;;6.22;3.53;;;;;;;7.31;100.00;98864.94;5128499;28;20030;-64
2024/03/16 03:30:24;;;;;;;10.05;2.60;;;;;;;7.27;100.00;98869.31;5128214;28;20079;-62
2024/03/16 03:32:50;;;;;;;14.65;4.70;;;;;;;7.32;100.00;98856.31;5128197;28;20023;-63
2024/03/16 03:35:15;;;;;;;3.28;2.53;;;;;;;7.25;100.00;98857.34;5128592;28;20439;-63
2024/03/16 03:37:40;;;;;;;9.70;2.67;;;;;;;7.26;100.00;98870.22;5127171;28;20019;-63
2024/03/16 03:40:06;;;;;;;2.72;1.65;;;;;;;7.22;100.00;98867.72;5128152;28;20109;-63
2024/03/16 03:42:33;;;;;;;2.05;1.40;;;;;;;7.18;100.00;98854.88;5126852;28;20027;-63
2024/03/16 03:45:13;;;;;;;5.78;2.40;;;;;;;7.13;100.00;98856.69;5127836;28;20024;-63
2024/03/16 03:50:28;;;;;;;1.65;1.50;;;;;;;7.05;100.00;98853.38;5128261;28;20050;-64
2024/03/16 03:52:55;;;;;;;5.95;1.58;;;;;;;7.02;100.00;98862.06;5128282;28;20019;-64
2024/03/16 03:55:23;;;;;;;11.32;1.83;;;;;;;6.97;100.00;98861.28;5127889;28;20028;-64
2024/03/16 03:57:49;;;;;;;9.68;5.53;;;;;;;6.96;100.00;98846.69;5126238;28;20020;-63
2024/03/16 04:00:15;;;;;;;2.45;2.25;;;;;;;6.97;100.00;98855.25;5127686;28;20066;-63
2024/03/16 04:02:40;;;;;;;2.60;2.30;;;;;;;6.93;100.00;98855.31;5127513;28;20039;-66
2024/03/16 04:05:06;;;;;;;13.07;3.28;;;;;;;6.90;100.00;98854.56;5127663;28;20050;-64
2024/03/16 04:07:31;;;;;;;2.03;1.92;;;;;;;6.87;100.00;98858.00;5126192;28;20024;-65
2024/03/16 04:09:57;;;;;;;8.13;3.17;;;;;;;6.84;100.00;98852.91;5127562;28;20496;-66
2024/03/16 04:12:22;;;;;;;14.32;4.13;;;;;;;6.78;100.00;98845.28;5108918;28;20057;-65
2024/03/16 04:14:48;;;;;;;1.83;1.67;;;;;;;6.76;100.00;98852.19;5127433;28;20038;-65
2024/03/16 04:17:14;;;;;;;3.15;2.47;;;;;;;6.74;100.00;98854.81;5127294;28;20015;-65
2024/03/16 04:19:39;;;;;;;4.70;1.95;;;;;;;6.74;100.00;98849.66;5108939;28;20090;-64
2024/03/16 04:22:05;;;;;;;0.98;0.98;;;;;;;6.66;100.00;98842.03;5127334;28;20435;-65
2024/03/16 04:24:30;;;;;;;7.38;4.20;;;;;;;6.61;100.00;98843.00;5127258;28;20047;-65
2024/03/16 04:26:55;;;;;;;2.83;2.45;;;;;;;6.61;100.00;98849.03;5126997;28;20107;-65
2024/03/16 04:29:21;;;;;;;1.48;1.02;;;;;;;6.58;100.00;98843.94;5127380;28;20024;-65
2024/03/16 04:31:46;;;;;;;1.13;1.13;;;;;;;6.51;100.00;98847.47;5126889;28;20188;-65
2024/03/16 04:34:11;;;;;;;1.30;1.20;;;;;;;6.45;100.00;98853.59;5127240;28;20020;-65
2024/03/16 04:36:37;;;;;;;3.25;1.90;;;;;;;6.41;100.00;98852.78;5127233;28;20051;-66
2024/03/16 04:39:02;;;;;;;0.90;0.85;;;;;;;6.30;100.00;98826.31;5126420;28;20031;-65
2024/03/16 04:41:28;;;;;;;1.27;0.85;;;;;;;6.28;100.00;98843.53;5108582;28;20049;-66
2024/03/16 04:43:54;;;;;;;4.20;2.53;;;;;;;6.28;100.00;98854.72;5108686;28;20020;-65
2024/03/16 04:46:19;;;;;;;2.50;1.60;;;;;;;6.31;100.00;98851.25;5126788;28;20343;-65
2024/03/16 04:48:44;;;;;;;1.75;1.40;;;;;;;6.28;100.00;98852.13;5126800;28;20482;-65
2024/03/16 04:51:10;;;;;;;2.80;2.10;;;;;;;6.30;100.00;98854.69;5126603;28;20023;-66
2024/03/16 04:53:35;;;;;;;4.10;2.03;;;;;;;6.27;100.00;98855.59;5126681;28;20411;-65
2024/03/16 04:56:01;;;;;;;13.85;2.30;;;;;;;6.26;100.00;98858.19;5126677;28;20019;-66
2024/03/16 04:58:26;;;;;;;0.93;0.82;;;;;;;6.23;100.00;98855.66;5108085;28;20419;-65
2024/03/16 05:00:52;;;;;;;6.30;2.38;;;;;;;6.21;100.00;98855.69;5126307;28;20306;-65
2024/03/16 05:03:18;;;;;;;2.28;2.10;;;;;;;6.20;100.00;98857.41;5126489;28;20481;-64
2024/03/16 05:05:43;;;;;;;4.00;1.30;;;;;;;6.18;100.00;98858.31;5126387;28;20031;-65
2024/03/16 05:08:09;;;;;;;1.25;1.15;;;;;;;6.15;100.00;98859.19;5126421;28;20104;-66
2024/03/16 05:10:34;;;;;;;3.30;1.33;;;;;;;6.10;100.00;98868.75;5126243;28;20051;-65
2024/03/16 05:12:59;;;;;;;2.78;2.13;;;;;;;6.07;100.00;98874.78;5126243;28;20491;-65
2024/03/16 05:15:25;;;;;;;3.13;1.67;;;;;;;6.06;100.00;98874.78;5126541;28;20462;-65
2024/03/16 05:17:50;;;;;;;0.50;0.50;;;;;;;6.04;100.00;98873.94;5125909;28;20043;-65
2024/03/16 05:20:15;;;;;;;1.08;1.02;;;;;;;5.96;100.00;98886.91;5126188;28;20023;-66
2024/03/16 05:22:41;;;;;;;2.40;1.48;;;;;;;5.89;100.00;98886.19;5107900;28;20035;-66
2024/03/16 05:25:06;;;;;;;2.25;1.92;;;;;;;5.79;100.00;98887.16;5125727;28;20028;-65
2024/03/16 05:27:32;;;;;;;2.15;0.70;;;;;;;5.61;100.00;98899.41;5125804;28;20074;-66
2024/03/16 05:29:57;;;;;;;0.40;0.40;;;;;;;5.49;100.00;98905.56;5125877;28;20405;-67
2024/03/16 05:32:25;;;;;;;0.40;0.40;;;;;;;5.39;100.00;98909.09;5125796;28;20019;-66
2024/03/16 05:34:50;;;;;;;0.50;0.50;;;;;;;5.30;100.00;98910.91;5126068;28;20099;-67
2024/03/16 05:37:16;;;;;;;0.50;0.50;;;;;;;5.28;100.00;98919.50;5125624;28;20084;-67
2024/03/16 05:39:41;;;;;;;0.68;0.68;;;;;;;5.21;100.00;98916.16;5125447;28;20055;-68
2024/03/16 05:42:06;;;;;;;4.55;0.65;;;;;;;5.13;100.00;98912.81;5126034;28;20023;-68
2024/03/16 05:44:32;;;;;;;0.70;0.70;;;;;;;5.07;100.00;98921.44;5107235;28;20038;-68
2024/03/16 05:46:57;;;;;;;0.40;0.40;;;;;;;5.02;100.00;98920.63;5125614;28;20372;-68
2024/03/16 05:49:22;;;;;;;0.40;0.40;;;;;;;4.95;100.00;98930.97;5125771;28;20080;-68
2024/03/16 05:51:48;;;;;;;1.90;1.77;;;;;;;4.90;100.00;98930.19;5125582;28;20024;-68
2024/03/16 05:54:13;;;;;;;4.53;0.60;;;;;;;4.88;100.00;98941.31;5125655;28;20031;-68
2024/03/16 05:56:39;;;;;;;0.40;0.40;;;;;;;4.78;100.00;98946.56;5126200;28;20019;-68
2024/03/16 05:59:08;;;;;;;0.50;0.50;;;;;;;4.70;100.00;98936.34;5107166;28;20091;-68
2024/03/16 06:01:34;;;;;;;9.48;1.30;;;;;;;4.66;100.00;98947.53;5124977;28;20107;-67
2024/03/16 06:04:00;;;;;;;1.27;1.00;;;;;;;4.60;100.00;98939.81;5125807;28;20425;-69
2024/03/16 06:06:25;;;;;;;1.35;0.75;;;;;;;4.54;100.00;98929.59;5125598;28;20039;-69
2024/03/16 06:08:51;;;;;;;0.73;0.73;;;;;;;4.53;100.00;98945.91;5125356;28;20383;-70
2024/03/16 06:11:16;;;;;;;4.50;2.35;;;;;;;4.42;100.00;98953.69;5107270;28;20088;-69
2024/03/16 06:13:42;;;;;;;0.55;0.50;;;;;;;4.35;100.00;98963.13;5125393;28;20019;-68
2024/03/16 06:16:08;;;;;;;0.95;0.95;;;;;;;4.34;100.00;98959.72;5125318;28;20023;-69
2024/03/16 06:18:33;;;;;;;0.43;0.43;;;;;;;4.26;100.00;98966.63;5125320;28;20027;-69
2024/03/16 06:20:58;;;;;;;0.80;0.80;;;;;;;4.26;100.00;98970.91;5125132;28;20023;-69
2024/03/16 06:23:24;;;;;;;11.23;2.97;;;;;;;4.27;100.00;98967.47;5125368;28;20038;-68
2024/03/16 06:25:50;;;;;;;2.03;1.50;;;;;;;4.27;100.00;98977.75;5125094;28;20019;-68
2024/03/16 06:28:21;;;;;;;10.90;1.65;;;;;;;4.21;100.00;98976.94;5125242;28;20024;-68
2024/03/16 06:30:55;;;;;;;0.43;0.43;;;;;;;4.20;100.00;98984.66;5125325;28;20058;-68
2024/03/16 06:33:27;;;;;;;0.50;0.50;;;;;;;4.20;100.00;98997.50;5125209;28;20020;-68
2024/03/16 06:35:53;;;;;;;0.55;0.55;;;;;;;4.18;100.00;99000.06;5125256;28;20020;-69
2024/03/16 06:38:19;;;;;;;0.40;0.40;;;;;;;4.13;100.00;99001.81;5125049;28;20020;-68
2024/03/16 06:40:44;;;;;;;1.60;0.88;;;;;;;4.13;100.00;99006.94;5124889;28;20051;-67
2024/03/16 06:43:09;;;;;;;1.42;0.60;;;;;;;4.11;100.00;99006.09;5125005;28;20020;-67
2024/03/16 06:45:35;;;;;;;0.40;0.40;;;;;;;4.09;100.00;99006.09;5125398;28;20033;-68
2024/03/16 06:48:00;;;;;;;2.15;0.70;;;;;;;4.09;100.00;99003.53;5124922;28;20037;-67
2024/03/16 06:50:26;;;;;;;0.80;0.80;;;;;;;4.05;100.00;99021.53;5125417;28;20012;-67
2024/03/16 06:52:51;;;;;;;1.17;1.05;;;;;;;4.05;100.00;99011.25;5125136;28;20019;-66
2024/03/16 06:55:17;;;;;;;0.75;0.75;;;;;;;4.03;100.00;99008.69;5106736;28;20027;-64
2024/03/16 06:57:43;;;;;;;2.25;1.23;;;;;;;3.99;100.00;99018.97;5125143;28;20090;-68
2024/03/16 07:00:09;;;;;;;0.60;0.60;;;;;;;4.00;100.00;99002.72;5124850;28;20031;-66
2024/03/16 07:02:35;;;;;;;0.40;0.40;;;;;;;3.98;100.00;99018.13;5124980;28;20059;-65
2024/03/16 07:05:00;;;;;;;1.13;0.85;;;;;;;4.01;100.00;99017.28;5106384;28;20080;-66
2024/03/16 07:07:26;;;;;;;6.45;0.95;;;;;;;4.11;100.00;99030.91;5106536;28;20035;-67
2024/03/16 07:09:52;;;;;;;5.38;2.35;;;;;;;3.94;100.00;99004.47;5124924;28;20383;-68
2024/03/16 07:12:17;;;;;;;0.50;0.50;;;;;;;4.13;100.00;99029.19;5123430;28;20020;-68
2024/03/16 07:14:43;;;;;;;0.50;0.50;;;;;;;4.14;99.75;99036.91;5127074;28;20030;-67
2024/03/16 07:17:08;;;;;;;5.97;0.93;;;;;;;4.22;100.00;99044.56;5128393;28;20069;-68
2024/03/16 07:19:34;;;;;;;1.38;1.27;;;;;;;4.21;99.69;99030.03;5128268;28;20032;-66
2024/03/16 07:22:00;;;;;;;1.83;0.95;;;;;;;4.25;99.18;99025.72;5128287;28;20023;-65
2024/03/16 07:24:26;;;;;;;0.80;0.80;;;;;;;4.35;99.32;99047.94;5128536;28;20016;-64
2024/03/16 07:26:51;;;;;;;1.15;1.15;;;;;;;4.38;99.02;99044.53;5127019;28;20020;-65
2024/03/16 07:29:17;;;;;;;4.88;0.68;;;;;;;4.42;98.26;99035.91;5128320;28;20031;-67
2024/03/16 07:31:42;;;;;;;0.50;0.50;;;;;;;4.41;98.87;99040.19;5128340;28;20030;-66
2024/03/16 07:34:08;;;;;;;6.72;1.00;;;;;;;4.45;98.20;99044.47;5128172;28;20024;-66
2024/03/16 07:36:33;;;;;;;0.40;0.40;;;;;;;4.49;98.06;99034.19;5128264;28;20020;-66
2024/03/16 07:38:59;;;;;;;0.70;0.70;;;;;;;4.51;97.75;99050.41;5128224;28;20019;-66
2024/03/16 07:41:24;;;;;;;2.70;1.20;;;;;;;4.53;97.52;99053.84;5127606;28;20044;-65
2024/03/16 07:43:50;;;;;;;2.63;1.65;;;;;;;4.57;97.48;99058.09;5128202;28;20020;-66
2024/03/16 07:46:16;;;;;;;0.60;0.60;;;;;;;4.57;97.00;99058.09;5127898;28;20065;-66
2024/03/16 07:48:42;;;;;;;0.40;0.40;;;;;;;4.58;97.21;99057.25;5126755;28;20483;-67
2024/03/16 07:51:09;;;;;;;20.38;1.23;;;;;;;4.57;96.01;99061.53;5128164;28;20031;-67
2024/03/16 07:53:35;;;;;;;1.55;1.00;;;;;;;4.61;95.68;99052.09;5127928;28;20016;-67
2024/03/16 07:56:00;;;;;;;1.05;0.50;;;;;;;4.61;95.01;99043.50;5127650;28;20031;-68
2024/03/16 07:58:26;;;;;;;3.83;1.80;;;;;;;4.65;94.40;99051.19;5127917;28;20030;-69
2024/03/16 08:00:52;;;;;;;0.93;0.93;;;;;;;4.70;95.53;99053.75;5127674;28;20026;-69
2024/03/16 08:03:18;;;;;;;7.95;2.05;;;;;;;4.76;94.29;99055.44;5127659;28;20028;-67
2024/03/16 08:05:44;;;;;;;1.17;0.65;;;;;;;4.71;94.15;99048.59;5127837;28;20043;-68
2024/03/16 08:08:09;;;;;;;1.00;0.60;;;;;;;4.78;93.98;99058.81;5126223;28;20026;-68
2024/03/16 08:10:35;;;;;;;12.55;1.50;;;;;;;4.78;93.59;99069.13;5127872;28;20020;-67
2024/03/16 08:13:00;;;;;;;5.30;0.60;;;;;;;4.75;92.54;99058.84;5127842;28;20149;-68
2024/03/16 08:15:25;;;;;;;1.38;1.08;;;;;;;4.77;92.40;99062.28;5127563;28;20023;-67
2024/03/16 08:17:52;;;;;;;2.53;1.63;;;;;;;4.83;92.25;99072.53;5127592;28;20038;-66
2024/03/16 08:20:18;;;;;;;15.88;4.70;;;;;;;4.85;93.49;99073.38;5127574;28;20028;-69
2024/03/16 08:22:43;;;;;;;5.88;1.17;;;;;;;4.87;92.27;99070.78;5127504;28;20052;-67
2024/03/16 08:25:12;;;;;;;1.52;1.42;;;;;;;4.84;92.46;99075.09;5127093;28;20076;-67
2024/03/16 08:27:37;;;;;;;2.10;0.85;;;;;;;4.85;91.29;99075.94;5127299;28;20032;-67
2024/03/16 08:30:03;;;;;;;0.47;0.47;;;;;;;4.86;92.74;99071.66;5127085;28;20111;-67
2024/03/16 08:32:29;;;;;;;3.60;1.38;;;;;;;4.87;91.42;99074.22;5125742;28;20019;-67
2024/03/16 08:34:54;;;;;;;0.60;0.57;;;;;;;4.88;91.26;99069.91;5127297;28;20048;-67
2024/03/16 08:37:20;;;;;;;1.13;0.77;;;;;;;4.88;90.87;99075.91;5127233;28;20121;-68
2024/03/16 08:39:45;;;;;;;0.40;0.40;;;;;;;4.89;90.54;99072.47;5127002;28;20047;-67
2024/03/16 08:42:12;;;;;;;0.88;0.88;;;;;;;4.91;90.65;99064.75;5125663;28;20324;-68
2024/03/16 08:44:38;;;;;;;7.47;1.83;;;;;;;4.91;88.94;99075.03;5127050;28;20102;-66
2024/03/16 08:47:05;;;;;;;15.90;2.65;;;;;;;4.90;87.48;99088.78;5108542;28;20031;-67
2024/03/16 08:49:31;;;;;;;1.55;1.45;;;;;;;4.88;88.05;99081.06;5126636;28;20019;-66
2024/03/16 08:51:59;;;;;;;1.60;1.23;;;;;;;4.88;85.75;99088.78;5125507;28;20020;-66
2024/03/16 08:54:24;;;;;;;1.75;0.95;;;;;;;4.91;87.81;99081.03;5126823;28;20081;-65
2024/03/16 08:56:51;;;;;;;4.50;1.67;;;;;;;4.89;87.81;99105.91;5126728;28;20020;-67
2024/03/16 08:59:17;;;;;;;10.23;3.72;;;;;;;4.92;87.28;99087.88;5126685;28;20020;-67
2024/03/16 09:01:42;;;;;;;1.17;1.15;;;;;;;4.95;88.26;99087.03;5126488;28;20019;-67
2024/03/16 09:04:08;;;;;;;3.47;3.17;;;;;;;4.91;87.81;99086.19;5126724;28;20016;-67
2024/03/16 09:06:35;;;;;;;7.20;1.25;;;;;;;4.93;87.63;99094.75;5125257;28;20024;-67
2024/03/16 09:09:00;;;;;;;3.05;1.98;;;;;;;4.98;86.91;99091.28;5125431;28;20015;-67
2024/03/16 09:11:26;;;;;;;1.70;1.15;;;;;;;5.00;86.98;99102.44;5126712;28;20031;-66
2024/03/16 09:13:51;;;;;;;0.40;0.40;;;;;;;4.96;85.56;99091.31;5126557;28;20097;-67
2024/03/16 09:16:17;;;;;;;0.95;0.95;;;;;;;4.93;85.83;99093.91;5126202;28;20032;-67
2024/03/16 09:18:42;;;;;;;7.13;2.85;;;;;;;4.90;84.98;99093.91;5126390;28;20083;-68
2024/03/16 09:21:08;;;;;;;2.10;1.95;;;;;;;4.86;83.96;99099.94;5107874;28;20046;-66
2024/03/16 09:23:34;;;;;;;8.00;3.08;;;;;;;4.83;84.54;99082.81;5107793;28;20024;-67
2024/03/16 09:26:03;;;;;;;0.50;0.50;;;;;;;4.92;84.70;99085.31;5107843;28;20020;-66
2024/03/16 09:28:29;;;;;;;2.40;1.23;;;;;;;4.89;83.98;99094.78;5126106;28;20027;-67
2024/03/16 09:30:55;;;;;;;3.42;1.50;;;;;;;4.84;83.89;99090.50;5126035;28;20075;-67
2024/03/16 09:33:21;;;;;;;0.80;0.80;;;;;;;4.84;84.22;99087.06;5107980;28;20077;-65
2024/03/16 09:35:47;;;;;;;2.50;2.15;;;;;;;4.91;84.55;99093.91;5106999;28;20045;-66
2024/03/16 09:38:12;;;;;;;0.60;0.60;;;;;;;4.92;83.56;99090.47;5125915;28;20024;-66
2024/03/16 09:40:43;;;;;;;0.52;0.52;;;;;;;4.93;83.77;99094.75;5125599;28;20052;-67
2024/03/16 09:43:12;;;;;;;6.85;1.85;;;;;;;4.90;82.08;99093.91;5125795;28;20030;-67
2024/03/16 09:45:40;;;;;;;5.57;2.15;;;;;;;4.93;82.40;99086.19;5125836;28;20023;-70
2024/03/16 09:48:09;;;;;;;7.90;2.70;;;;;;;4.92;82.28;99100.75;5125701;28;20057;-69
2024/03/16 09:50:40;;;;;;;4.45;1.67;;;;;;;5.02;82.70;99103.25;5125753;28;20024;-67
2024/03/16 09:53:09;;;;;;;2.20;2.07;;;;;;;5.09;83.06;99099.78;5126159;28;20023;-70
2024/03/16 09:55:34;;;;;;;4.75;1.92;;;;;;;5.03;82.14;99104.97;5125938;28;20023;-71
2024/03/16 09:58:00;;;;;;;2.97;1.63;;;;;;;4.94;81.85;99085.31;5125511;28;20050;-70
2024/03/16 10:00:27;;;;;;;15.30;1.48;;;;;;;4.99;81.49;99113.56;5126077;28;20019;-66
2024/03/16 10:02:53;;;;;;;1.17;1.05;;;;;;;4.96;81.83;99099.88;5124227;28;20031;-68
2024/03/16 10:05:18;;;;;;;8.50;2.85;;;;;;;4.89;81.13;99111.06;5125560;28;20015;-67
2024/03/16 10:07:45;;;;;;;6.82;2.95;;;;;;;4.89;81.49;99116.19;5125662;28;20024;-68
2024/03/16 10:10:17;;;;;;;6.65;1.50;;;;;;;4.91;82.61;99101.63;5107444;28;20045;-67
2024/03/16 10:12:43;;;;;;;11.63;1.88;;;;;;;4.87;81.59;99107.66;5107333;28;20498;-68
2024/03/16 10:15:15;;;;;;;0.52;0.52;;;;;;;4.82;82.61;99102.50;5124210;28;20019;-69
2024/03/16 10:17:41;;;;;;;8.15;1.80;;;;;;;4.83;81.49;99099.09;5125268;28;20019;-68
2024/03/16 10:20:18;;;;;;;0.93;0.93;;;;;;;4.87;81.79;99117.09;5125639;28;20024;-68
2024/03/16 10:22:48;;;;;;;3.67;1.88;;;;;;;4.94;83.07;99101.59;5107386;28;20034;-67
2024/03/16 10:25:15;;;;;;;0.75;0.65;;;;;;;4.95;83.66;99093.00;5124152;28;20019;-68
2024/03/16 10:27:42;;;;;;;9.55;2.47;;;;;;;4.99;83.80;99106.72;5125312;28;20023;-69
2024/03/16 10:30:17;;;;;;;3.55;1.20;;;;;;;4.99;83.00;99111.84;5125354;28;20378;-70
2024/03/16 10:32:49;;;;;;;1.90;0.77;;;;;;;4.94;83.30;99099.03;5123939;28;20020;-69
2024/03/16 10:35:18;;;;;;;0.50;0.50;;;;;;;4.85;82.80;99088.81;5125335;28;20030;-71
2024/03/16 10:37:47;;;;;;;1.52;1.42;;;;;;;4.79;82.39;99111.97;5125016;28;20024;-63
2024/03/16 10:40:16;;;;;;;1.85;1.42;;;;;;;4.93;84.09;99112.75;5106445;28;20039;-68
2024/03/16 10:42:44;;;;;;;2.60;2.03;;;;;;;5.04;83.39;99102.41;5106793;28;20027;-64
2024/03/16 10:45:16;;;;;;;2.65;2.45;;;;;;;5.15;82.75;99088.59;5125243;28;20024;-64
2024/03/16 10:47:50;;;;;;;0.73;0.73;;;;;;;5.20;81.97;99092.00;5127185;28;20028;-66
2024/03/16 10:50:17;;;;;;;2.45;0.98;;;;;;;5.25;81.36;99095.38;5129457;28;20035;-63
2024/03/16 10:52:43;;;;;;;1.95;1.83;;;;;;;5.35;80.67;99090.16;5129129;28;20026;-66
2024/03/16 10:55:14;;;;;;;0.47;0.47;;;;;;;5.43;80.16;99096.94;5129188;28;20026;-66
2024/03/16 10:57:40;;;;;;;13.38;1.20;;;;;;;5.51;79.65;99086.56;5128748;28;20028;-60
2024/03/16 11:00:26;;;;;;;0.50;0.50;;;;;;;5.55;79.02;99098.56;5129131;28;20027;-67
2024/03/16 11:03:02;;;;;;;3.50;1.23;;;;;;;5.58;79.34;99087.38;5128899;28;20027;-61
2024/03/16 11:05:39;;;;;;;2.53;2.00;;;;;;;5.63;78.62;99095.94;5129067;28;20040;-64
2024/03/16 11:08:13;;;;;;;1.88;0.93;;;;;;;5.66;78.74;99098.47;5129013;28;20042;-67
2024/03/16 11:10:43;;;;;;;0.60;0.60;;;;;;;5.62;78.20;99093.38;5128677;28;20020;-68
2024/03/16 11:13:20;;;;;;;4.00;1.00;;;;;;;5.68;78.31;99083.00;5128667;28;20023;-71
2024/03/16 11:15:46;;;;;;;36.95;3.20;;;;;;;5.78;78.57;99091.50;5128921;28;20019;-70
2024/03/16 11:18:39;;;;;;;15.27;2.45;;;;;;;5.85;77.43;99103.44;5128511;28;20027;-71
2024/03/16 11:21:14;;;;;;;28.45;2.00;;;;;;;5.83;77.24;99092.31;5120423;28;20039;-67
2024/03/16 11:23:42;;;;;;;3.75;2.22;;;;;;;5.76;76.60;99090.66;5128336;28;20038;-71
2024/03/16 11:26:26;;;;;;;24.80;3.90;;;;;;;5.70;76.97;99102.72;5128489;28;20031;-72
2024/03/16 11:29:03;;;;;;;1.67;1.08;;;;;;;5.56;77.15;99096.81;5109905;28;20030;-71
2024/03/16 11:31:41;;;;;;;0.80;0.80;;;;;;;5.38;77.49;99090.13;5110160;28;20023;-69
2024/03/16 11:34:20;;;;;;;19.77;6.15;;;;;;;5.31;77.04;99100.47;5110477;28;20242;-71
2024/03/16 11:36:59;;;;;;;12.23;3.03;;;;;;;5.21;77.19;99089.41;5110334;28;20079;-71